createdAt,value
2023-01-01T00:01:32.356Z,18.90
2023-01-01T00:04:01.270Z,17.10
2023-01-01T00:06:29.611Z,17.60
2023-01-01T00:08:57.902Z,17.00
2023-01-01T00:11:26.178Z,17.40
2023-01-01T00:13:54.390Z,15.90
2023-01-01T00:16:22.727Z,16.30
2023-01-01T00:18:51.906Z,15.70
2023-01-01T00:21:20.142Z,14.90
2023-01-01T00:23:48.386Z,13.30
2023-01-01T00:26:18.683Z,13.30
2023-01-01T00:28:46.917Z,13.90
2023-01-01T00:31:18.780Z,14.30
2023-01-01T00:33:51.113Z,13.10
2023-01-01T00:36:21.245Z,15.10
2023-01-01T00:38:50.536Z,15.40
2023-01-01T00:41:19.403Z,15.10
2023-01-01T00:43:48.038Z,13.50
2023-01-01T00:46:16.304Z,13.80
2023-01-01T00:48:44.804Z,13.70
2023-01-01T00:51:13.300Z,13.20
2023-01-01T00:53:44.133Z,14.40
2023-01-01T00:56:12.781Z,13.50
2023-01-01T00:58:41.038Z,13.00
2023-01-01T01:01:09.422Z,12.80
2023-01-01T01:03:39.976Z,12.90
2023-01-01T01:06:12.750Z,13.00
2023-01-01T01:08:45.314Z,12.60
2023-01-01T01:11:21.245Z,11.50
2023-01-01T01:13:54.939Z,11.20
2023-01-01T01:16:32.683Z,11.40
2023-01-01T01:19:04.310Z,12.00
2023-01-01T01:21:34.610Z,10.60
2023-01-01T01:24:06.270Z,9.90
2023-01-01T01:26:35.046Z,9.50
2023-01-01T01:29:03.904Z,9.60
2023-01-01T01:31:34.089Z,9.80
2023-01-01T01:34:02.997Z,10.50
2023-01-01T01:36:31.792Z,9.40
2023-01-01T01:39:00.402Z,9.60
2023-01-01T01:41:29.242Z,9.30
2023-01-01T01:44:02.375Z,8.90
2023-01-01T01:46:36.921Z,6.40
2023-01-01T01:49:15.531Z,8.50
2023-01-01T01:51:45.108Z,8.60
2023-01-01T01:54:20.988Z,9.40
2023-01-01T01:57:03.245Z,8.70
2023-01-01T01:59:35.487Z,8.90
2023-01-01T02:02:10.502Z,8.80
2023-01-01T02:04:39.504Z,9.50
2023-01-01T02:07:08.624Z,9.20
2023-01-01T02:09:38.312Z,10.20
2023-01-01T02:12:06.715Z,9.50
2023-01-01T02:14:35.022Z,10.10
2023-01-01T02:17:38.963Z,11.30
2023-01-01T02:20:17.252Z,13.10
2023-01-01T02:25:33.196Z,11.70
2023-01-01T02:28:07.078Z,12.10
2023-01-01T02:30:36.878Z,12.90
2023-01-01T02:33:09.771Z,12.60
2023-01-01T02:35:59.889Z,12.80
2023-01-01T02:38:43.377Z,13.50
2023-01-01T02:41:21.957Z,14.50
2023-01-01T02:43:53.305Z,13.50
2023-01-01T02:48:53.872Z,12.50
2023-01-01T02:51:41.495Z,11.90
2023-01-01T02:54:19.110Z,10.90
2023-01-01T02:57:21.191Z,10.70
2023-01-01T03:00:18.526Z,9.90
2023-01-01T03:03:05.548Z,9.40
2023-01-01T03:05:46.848Z,10.20
2023-01-01T03:08:26.703Z,10.20
2023-01-01T03:11:14.854Z,10.70
2023-01-01T03:13:47.091Z,11.30
2023-01-01T03:16:37.189Z,10.10
2023-01-01T03:19:18.312Z,9.70
2023-01-01T03:21:58.497Z,10.20
2023-01-01T03:24:32.735Z,8.80
2023-01-01T03:27:13.970Z,8.80
2023-01-01T03:29:44.310Z,8.90
2023-01-01T03:32:17.005Z,5.00
2023-01-01T03:34:54.159Z,4.50
2023-01-01T03:37:29.357Z,7.20
2023-01-01T03:40:00.097Z,8.30
2023-01-01T03:42:42.028Z,7.20
2023-01-01T03:45:27.709Z,6.80
2023-01-01T03:47:57.000Z,6.70
2023-01-01T03:50:50.239Z,5.90
2023-01-01T03:53:24.636Z,5.90
2023-01-01T03:56:17.756Z,6.30
2023-01-01T03:58:54.242Z,6.00
2023-01-01T04:01:41.570Z,5.80
2023-01-01T04:04:11.581Z,4.40
2023-01-01T04:06:40.057Z,4.80
2023-01-01T04:09:16.117Z,4.90
2023-01-01T04:11:47.009Z,4.80
2023-01-01T04:14:26.278Z,5.00
2023-01-01T04:16:56.058Z,5.00
2023-01-01T04:19:24.417Z,4.50
2023-01-01T04:21:52.892Z,4.60
2023-01-01T04:24:21.113Z,4.30
2023-01-01T04:26:50.529Z,4.80
2023-01-01T04:29:19.838Z,5.00
2023-01-01T04:31:48.241Z,5.20
2023-01-01T04:34:16.667Z,4.90
2023-01-01T04:36:45.133Z,4.60
2023-01-01T04:39:13.410Z,3.90
2023-01-01T04:41:41.756Z,3.70
2023-01-01T04:44:10.250Z,1.80
2023-01-01T04:46:38.404Z,3.70
2023-01-01T04:49:06.817Z,4.10
2023-01-01T04:51:34.986Z,3.90
2023-01-01T04:54:03.220Z,3.80
2023-01-01T04:56:31.745Z,4.00
2023-01-01T04:59:02.376Z,3.90
2023-01-01T05:01:31.699Z,3.60
2023-01-01T05:04:01.681Z,3.50
2023-01-01T05:06:30.050Z,3.30
2023-01-01T05:08:58.532Z,3.50
2023-01-01T05:11:30.816Z,3.10
2023-01-01T05:14:00.455Z,3.60
2023-01-01T05:16:39.356Z,3.30
2023-01-01T05:19:08.848Z,2.60
2023-01-01T05:21:40.424Z,3.10
2023-01-01T05:24:10.393Z,2.80
2023-01-01T05:26:43.246Z,2.40
2023-01-01T05:29:16.696Z,2.80
2023-01-01T05:31:50.117Z,2.80
2023-01-01T05:34:19.711Z,2.60
2023-01-01T05:36:49.517Z,3.00
2023-01-01T05:39:18.643Z,1.90
2023-01-01T05:41:46.937Z,3.20
2023-01-01T05:44:19.086Z,3.40
2023-01-01T05:46:54.853Z,3.50
2023-01-01T05:49:25.783Z,3.30
2023-01-01T05:51:54.601Z,3.60
2023-01-01T05:54:23.032Z,3.30
2023-01-01T05:56:51.331Z,3.90
2023-01-01T05:59:20.169Z,4.20
2023-01-01T06:01:51.130Z,2.20
2023-01-01T06:04:20.374Z,5.10
2023-01-01T06:06:53.046Z,4.70
2023-01-01T06:09:21.122Z,4.90
2023-01-01T06:11:49.527Z,5.20
2023-01-01T06:14:17.804Z,5.30
2023-01-01T06:16:46.171Z,5.90
2023-01-01T06:19:14.749Z,6.30
2023-01-01T06:21:42.984Z,5.80
2023-01-01T06:24:12.481Z,5.80
2023-01-01T06:26:40.887Z,6.50
2023-01-01T06:29:09.828Z,5.70
2023-01-01T06:31:40.855Z,6.30
2023-01-01T06:34:09.886Z,5.30
2023-01-01T06:36:38.119Z,5.80
2023-01-01T06:39:06.728Z,3.40
2023-01-01T06:41:35.789Z,2.90
2023-01-01T06:44:04.162Z,5.40
2023-01-01T06:46:36.977Z,4.50
2023-01-01T06:49:07.890Z,4.10
2023-01-01T06:51:42.252Z,4.10
2023-01-01T06:54:11.690Z,4.00
2023-01-01T06:56:40.240Z,4.20
2023-01-01T06:59:08.564Z,2.10
2023-01-01T07:01:38.803Z,4.00
2023-01-01T07:04:16.385Z,2.70
2023-01-01T07:06:44.553Z,2.30
2023-01-01T07:09:17.427Z,3.70
2023-01-01T07:11:47.607Z,3.50
2023-01-01T07:14:18.671Z,3.60
2023-01-01T07:16:47.421Z,3.20
2023-01-01T07:19:16.115Z,3.40
2023-01-01T07:21:52.675Z,2.90
2023-01-01T07:24:23.193Z,3.10
2023-01-01T07:26:51.391Z,1.50
2023-01-01T07:29:19.657Z,3.90
2023-01-01T07:31:50.272Z,3.50
2023-01-01T07:34:20.055Z,2.80
2023-01-01T07:36:52.283Z,2.90
2023-01-01T07:39:20.672Z,2.70
2023-01-01T07:41:49.626Z,2.70
2023-01-01T07:44:19.147Z,2.70
2023-01-01T07:46:50.432Z,2.20
2023-01-01T07:49:20.398Z,2.90
2023-01-01T07:51:49.925Z,2.40
2023-01-01T07:54:21.127Z,2.10
2023-01-01T07:56:49.357Z,2.80
2023-01-01T07:59:20.527Z,2.40
2023-01-01T08:01:51.312Z,2.70
2023-01-01T08:04:19.960Z,2.20
2023-01-01T08:06:48.199Z,2.90
2023-01-01T08:09:16.511Z,2.40
2023-01-01T08:11:46.314Z,2.40
2023-01-01T08:14:16.060Z,2.70
2023-01-01T08:16:44.771Z,3.10
2023-01-01T08:19:17.173Z,2.80
2023-01-01T08:21:45.883Z,2.10
2023-01-01T08:24:14.783Z,2.60
2023-01-01T08:26:43.338Z,2.40
2023-01-01T08:29:12.084Z,2.00
2023-01-01T08:31:41.369Z,2.20
2023-01-01T08:34:12.572Z,3.40
2023-01-01T08:36:41.268Z,3.10
2023-01-01T08:39:10.105Z,3.30
2023-01-01T08:41:38.492Z,2.80
2023-01-01T08:44:06.933Z,3.20
2023-01-01T08:46:35.225Z,2.80
2023-01-01T08:49:04.489Z,3.30
2023-01-01T08:51:33.065Z,2.80
2023-01-01T08:54:01.297Z,3.50
2023-01-01T08:56:30.241Z,3.10
2023-01-01T08:59:03.933Z,2.80
2023-01-01T09:01:34.087Z,2.70
2023-01-01T09:04:03.461Z,3.30
2023-01-01T09:06:31.555Z,2.80
2023-01-01T09:08:59.681Z,3.30
2023-01-01T09:11:29.264Z,3.20
2023-01-01T09:13:57.565Z,3.30
2023-01-01T09:16:26.048Z,3.70
2023-01-01T09:18:54.526Z,3.60
2023-01-01T09:21:23.164Z,3.50
2023-01-01T09:23:51.393Z,4.10
2023-01-01T09:26:19.909Z,7.90
2023-01-01T09:28:48.070Z,10.40
2023-01-01T09:31:16.379Z,8.60
2023-01-01T09:33:44.991Z,8.50
2023-01-01T09:36:14.137Z,7.70
2023-01-01T09:38:52.517Z,6.20
2023-01-01T09:41:23.787Z,5.60
2023-01-01T09:44:30.606Z,5.50
2023-01-01T09:47:02.734Z,5.20
2023-01-01T09:49:33.868Z,4.50
2023-01-01T09:52:03.232Z,4.60
2023-01-01T09:54:41.402Z,4.20
2023-01-01T09:57:19.809Z,3.40
2023-01-01T09:59:48.126Z,3.30
2023-01-01T10:02:51.657Z,3.40
2023-01-01T10:05:48.680Z,3.40
2023-01-01T10:08:54.741Z,3.80
2023-01-01T10:11:52.174Z,4.40
2023-01-01T10:14:29.479Z,4.40
2023-01-01T10:17:02.653Z,4.30
2023-01-01T10:19:39.711Z,4.20
2023-01-01T10:22:13.510Z,4.40
2023-01-01T10:24:51.042Z,4.90
2023-01-01T10:30:13.174Z,4.90
2023-01-01T10:32:41.660Z,4.90
2023-01-01T10:35:28.369Z,5.30
2023-01-01T10:38:04.517Z,5.40
2023-01-01T10:40:33.866Z,5.40
2023-01-01T10:43:02.462Z,5.50
2023-01-01T10:45:35.657Z,6.40
2023-01-01T10:48:11.484Z,5.70
2023-01-01T10:50:53.876Z,5.70
2023-01-01T10:53:50.954Z,5.60
2023-01-01T10:56:22.616Z,6.70
2023-01-01T10:59:01.755Z,8.40
2023-01-01T11:01:32.510Z,8.20
2023-01-01T11:04:21.291Z,6.70
2023-01-01T11:06:49.949Z,5.80
2023-01-01T11:09:21.130Z,6.50
2023-01-01T11:12:09.369Z,6.20
2023-01-01T11:14:56.237Z,6.40
2023-01-01T11:17:27.781Z,5.90
2023-01-01T11:20:02.106Z,6.60
2023-01-01T11:22:41.126Z,6.10
2023-01-01T11:25:23.363Z,6.10
2023-01-01T11:27:52.476Z,6.30
2023-01-01T11:30:21.306Z,6.40
2023-01-01T11:32:55.626Z,6.40
2023-01-01T11:35:27.588Z,6.90
2023-01-01T11:37:57.885Z,6.70
2023-01-01T11:40:35.789Z,7.00
2023-01-01T11:43:06.502Z,6.80
2023-01-01T11:45:40.386Z,7.80
2023-01-01T11:48:22.668Z,7.10
2023-01-01T11:51:04.818Z,6.80
2023-01-01T11:53:39.253Z,6.70
2023-01-01T11:56:16.494Z,6.50
2023-01-01T11:58:48.003Z,6.60
2023-01-01T12:01:19.371Z,7.10
2023-01-01T12:04:11.230Z,7.10
2023-01-01T12:06:48.095Z,7.00
2023-01-01T12:09:43.828Z,7.40
2023-01-01T12:12:26.607Z,6.60
2023-01-01T12:15:21.700Z,6.90
2023-01-01T12:18:06.648Z,6.90
2023-01-01T12:21:03.664Z,6.50
2023-01-01T12:23:32.666Z,6.90
2023-01-01T12:26:18.612Z,6.40
2023-01-01T12:29:17.843Z,6.70
2023-01-01T12:32:14.806Z,6.80
2023-01-01T12:35:12.103Z,6.30
2023-01-01T12:37:43.203Z,5.60
2023-01-01T12:40:34.888Z,5.30
2023-01-01T12:43:04.885Z,5.70
2023-01-01T12:46:00.591Z,5.40
2023-01-01T12:48:56.848Z,5.30
2023-01-01T12:51:30.973Z,5.60
2023-01-01T12:54:17.407Z,5.30
2023-01-01T12:56:45.491Z,4.80
2023-01-01T12:59:42.998Z,4.50
2023-01-01T13:02:25.110Z,5.10
2023-01-01T13:05:00.778Z,5.10
2023-01-01T13:07:39.730Z,4.60
2023-01-01T13:10:19.994Z,4.30
2023-01-01T13:12:49.237Z,4.40
2023-01-01T13:15:39.676Z,4.50
2023-01-01T13:18:13.715Z,5.00
2023-01-01T13:20:47.211Z,4.80
2023-01-01T13:23:33.919Z,4.10
2023-01-01T13:26:20.485Z,3.30
2023-01-01T13:28:58.074Z,3.70
2023-01-01T13:31:38.672Z,4.00
2023-01-01T13:34:59.654Z,4.10
2023-01-01T13:37:30.189Z,5.00
2023-01-01T13:40:23.136Z,4.10
2023-01-01T13:42:57.636Z,4.40
2023-01-01T13:46:11.651Z,4.10
2023-01-01T13:49:00.918Z,4.20
2023-01-01T13:52:07.006Z,4.10
2023-01-01T13:54:54.410Z,4.30
2023-01-01T13:57:48.689Z,5.00
2023-01-01T14:00:24.298Z,4.10
2023-01-01T14:03:09.063Z,4.60
2023-01-01T14:05:46.176Z,3.90
2023-01-01T14:08:31.330Z,3.60
2023-01-01T14:11:00.642Z,3.90
2023-01-01T14:13:40.825Z,3.50
2023-01-01T14:16:11.725Z,4.90
2023-01-01T14:18:44.297Z,3.70
2023-01-01T14:21:16.350Z,3.80
2023-01-01T14:23:48.957Z,4.60
2023-01-01T14:26:20.269Z,4.00
2023-01-01T14:28:49.284Z,4.30
2023-01-01T14:31:20.616Z,5.50
2023-01-01T14:33:49.037Z,5.40
2023-01-01T14:36:17.206Z,5.10
2023-01-01T14:38:47.626Z,5.50
2023-01-01T14:41:30.169Z,6.10
2023-01-01T14:44:07.341Z,5.90
2023-01-01T14:46:41.136Z,6.60
2023-01-01T14:49:16.137Z,6.00
2023-01-01T14:51:47.140Z,6.70
2023-01-01T14:54:21.864Z,6.00
2023-01-01T14:56:51.686Z,6.50
2023-01-01T14:59:50.141Z,6.70
2023-01-01T15:04:50.760Z,7.40
2023-01-01T15:07:27.129Z,7.40
2023-01-01T15:09:58.110Z,7.10
2023-01-01T15:12:27.336Z,7.90
2023-01-01T15:14:57.425Z,6.50
2023-01-01T15:17:27.693Z,6.60
2023-01-01T15:20:23.999Z,6.60
2023-01-01T15:22:54.794Z,6.80
2023-01-01T15:25:24.229Z,6.50
2023-01-01T15:27:55.149Z,6.40
2023-01-01T15:30:28.599Z,6.60
2023-01-01T15:33:05.988Z,6.30
2023-01-01T15:38:12.493Z,6.80
2023-01-01T15:40:41.445Z,6.40
2023-01-01T15:43:24.151Z,5.80
2023-01-01T15:45:53.861Z,6.00
2023-01-01T15:48:37.475Z,6.70
2023-01-01T15:51:12.950Z,7.40
2023-01-01T15:53:55.074Z,7.50
2023-01-01T15:56:32.964Z,7.10
2023-01-01T15:59:09.182Z,7.00
2023-01-01T16:01:40.746Z,7.40
2023-01-01T16:04:29.135Z,7.00
2023-01-01T16:06:59.447Z,6.90
2023-01-01T16:09:27.801Z,5.70
2023-01-01T16:11:57.231Z,6.20
2023-01-01T16:14:25.647Z,5.80
2023-01-01T16:16:56.784Z,5.90
2023-01-01T16:19:25.673Z,5.90
2023-01-01T16:21:53.854Z,5.30
2023-01-01T16:24:23.349Z,5.10
2023-01-01T16:26:51.641Z,5.70
2023-01-01T16:29:19.868Z,4.90
2023-01-01T16:31:48.348Z,5.30
2023-01-01T16:34:16.621Z,5.20
2023-01-01T16:36:45.654Z,4.30
2023-01-01T16:39:13.922Z,4.60
2023-01-01T16:41:44.931Z,4.50
2023-01-01T16:44:15.083Z,5.00
2023-01-01T16:46:43.894Z,4.20
2023-01-01T16:49:12.263Z,4.60
2023-01-01T16:51:43.723Z,4.40
2023-01-01T16:54:12.696Z,4.40
2023-01-01T16:56:41.029Z,4.40
2023-01-01T16:59:09.816Z,5.70
2023-01-01T17:01:38.085Z,4.70
2023-01-01T17:04:07.132Z,4.80
2023-01-01T17:06:38.549Z,4.80
2023-01-01T17:09:07.379Z,4.10
2023-01-01T17:11:36.719Z,5.60
2023-01-01T17:14:05.005Z,4.60
2023-01-01T17:16:39.004Z,5.00
2023-01-01T17:19:18.147Z,5.20
2023-01-01T17:21:48.433Z,5.40
2023-01-01T17:24:18.613Z,4.70
2023-01-01T17:26:51.711Z,5.80
2023-01-01T17:29:21.480Z,5.50
2023-01-01T17:31:50.074Z,6.40
2023-01-01T17:34:19.124Z,5.80
2023-01-01T17:36:47.362Z,5.70
2023-01-01T17:39:16.071Z,6.20
2023-01-01T17:41:45.130Z,6.10
2023-01-01T17:44:13.382Z,6.40
2023-01-01T17:46:41.622Z,6.00
2023-01-01T17:49:10.602Z,6.40
2023-01-01T17:51:38.923Z,6.40
2023-01-01T17:54:07.382Z,6.10
2023-01-01T17:56:36.064Z,6.70
2023-01-01T17:59:04.464Z,7.00
2023-01-01T18:01:33.587Z,6.20
2023-01-01T18:04:07.602Z,6.30
2023-01-01T18:06:41.994Z,6.60
2023-01-01T18:09:13.384Z,6.40
2023-01-01T18:11:42.112Z,5.80
2023-01-01T18:14:12.181Z,6.70
2023-01-01T18:16:44.103Z,6.40
2023-01-01T18:19:12.524Z,8.50
2023-01-01T18:21:40.742Z,9.70
2023-01-01T18:24:14.499Z,11.30
2023-01-01T18:26:43.410Z,11.40
2023-01-01T18:29:11.780Z,13.10
2023-01-01T18:31:40.287Z,14.40
2023-01-01T18:34:10.468Z,14.20
2023-01-01T18:36:39.014Z,13.10
2023-01-01T18:39:15.581Z,12.20
2023-01-01T18:42:12.135Z,12.80
2023-01-01T18:44:40.918Z,11.50
2023-01-01T18:47:20.074Z,11.10
2023-01-01T18:49:50.800Z,11.30
2023-01-01T18:52:28.024Z,12.00
2023-01-01T18:55:11.053Z,12.10
2023-01-01T18:57:40.924Z,12.70
2023-01-01T19:00:19.244Z,13.30
2023-01-01T19:02:58.630Z,14.00
2023-01-01T19:05:29.887Z,14.00
2023-01-01T19:08:07.244Z,14.10
2023-01-01T19:10:54.207Z,13.50
2023-01-01T19:13:36.774Z,14.00
2023-01-01T19:16:11.865Z,15.80
2023-01-01T19:18:43.078Z,15.10
2023-01-01T19:21:11.178Z,16.10
2023-01-01T19:23:57.207Z,17.00
2023-01-01T19:26:27.904Z,17.40
2023-01-01T19:28:58.261Z,17.60
2023-01-01T19:31:27.085Z,16.10
2023-01-01T19:33:55.285Z,15.20
2023-01-01T19:36:23.865Z,14.30
2023-01-01T19:38:52.263Z,13.40
2023-01-01T19:41:20.565Z,13.60
2023-01-01T19:43:49.057Z,13.20
2023-01-01T19:46:17.198Z,12.00
2023-01-01T19:48:45.387Z,12.10
2023-01-01T19:51:13.681Z,12.00
2023-01-01T19:53:41.879Z,11.20
2023-01-01T19:56:10.084Z,11.10
2023-01-01T19:58:38.607Z,11.20
2023-01-01T20:01:06.822Z,10.40
2023-01-01T20:03:53.621Z,10.10
2023-01-01T20:06:23.011Z,8.60
2023-01-01T20:08:51.581Z,8.80
2023-01-01T20:11:20.839Z,8.70
2023-01-01T20:13:49.632Z,8.00
2023-01-01T20:16:17.786Z,7.80
2023-01-01T20:18:45.896Z,7.60
2023-01-01T20:21:14.247Z,7.80
2023-01-01T20:23:42.723Z,7.70
2023-01-01T20:26:10.981Z,7.90
2023-01-01T20:28:39.882Z,7.40
2023-01-01T20:31:08.096Z,6.90
2023-01-01T20:33:36.508Z,7.00
2023-01-01T20:36:04.884Z,6.80
2023-01-01T20:38:36.942Z,7.10
2023-01-01T20:41:09.073Z,8.30
2023-01-01T20:43:37.257Z,7.00
2023-01-01T20:46:05.577Z,6.10
2023-01-01T20:48:33.827Z,6.10
2023-01-01T20:51:01.967Z,6.50
2023-01-01T20:53:30.079Z,6.80
2023-01-01T20:55:58.853Z,7.80
2023-01-01T20:58:27.001Z,6.90
2023-01-01T21:00:55.288Z,7.20
2023-01-01T21:03:23.485Z,7.30
2023-01-01T21:05:51.674Z,7.40
2023-01-01T21:08:19.955Z,7.90
2023-01-01T21:10:48.543Z,6.70
2023-01-01T21:13:16.620Z,6.70
2023-01-01T21:15:44.831Z,7.30
2023-01-01T21:18:14.029Z,7.20
2023-01-01T21:20:48.055Z,6.80
2023-01-01T21:23:26.773Z,7.70
2023-01-01T21:25:55.138Z,7.50
2023-01-01T21:28:27.953Z,7.60
2023-01-01T21:30:59.903Z,7.60
2023-01-01T21:33:32.485Z,7.50
2023-01-01T21:36:13.252Z,7.10
2023-01-01T21:38:42.326Z,8.50
2023-01-01T21:41:29.649Z,8.10
2023-01-01T21:43:58.987Z,7.80
2023-01-01T21:46:34.538Z,7.60
2023-01-01T21:49:17.868Z,7.00
2023-01-01T21:52:01.088Z,6.60
2023-01-01T21:54:35.237Z,6.80
2023-01-01T21:57:33.139Z,7.00
2023-01-01T22:00:01.995Z,6.70
2023-01-01T22:02:32.889Z,6.70
2023-01-01T22:05:19.442Z,6.80
2023-01-01T22:08:04.136Z,6.00
2023-01-01T22:10:36.071Z,6.50
2023-01-01T22:13:14.764Z,7.10
2023-01-01T22:15:44.908Z,7.10
2023-01-01T22:18:21.938Z,7.10
2023-01-01T22:20:50.819Z,7.70
2023-01-01T22:23:39.387Z,6.90
2023-01-01T22:26:20.263Z,6.60
2023-01-01T22:28:51.624Z,6.80
2023-01-01T22:31:26.523Z,7.50
2023-01-01T22:33:54.776Z,7.50
2023-01-01T22:36:26.234Z,7.20
2023-01-01T22:38:57.727Z,7.10
2023-01-01T22:41:25.929Z,7.40
2023-01-01T22:44:01.295Z,6.90
2023-01-01T22:46:34.484Z,8.00
2023-01-01T22:49:19.467Z,6.30
2023-01-01T22:51:52.370Z,6.50
2023-01-01T22:54:21.246Z,6.60
2023-01-01T22:56:49.388Z,6.70
2023-01-01T22:59:17.535Z,6.80
2023-01-01T23:01:46.033Z,6.30
2023-01-01T23:04:14.368Z,6.80
2023-01-01T23:06:42.677Z,6.30
2023-01-01T23:09:11.654Z,5.30
2023-01-01T23:11:40.080Z,6.90
2023-01-01T23:14:08.597Z,6.50
2023-01-01T23:16:37.846Z,6.00
2023-01-01T23:19:06.846Z,6.40
2023-01-01T23:21:36.112Z,3.80
2023-01-01T23:24:09.025Z,6.60
2023-01-01T23:26:38.349Z,6.50
2023-01-01T23:29:09.335Z,6.50
2023-01-01T23:31:39.360Z,7.20
2023-01-01T23:34:08.177Z,7.20
2023-01-01T23:36:38.329Z,6.70
2023-01-01T23:39:06.541Z,7.00
2023-01-01T23:41:34.723Z,6.50
2023-01-01T23:44:03.031Z,6.10
2023-01-01T23:46:33.957Z,3.20
2023-01-01T23:49:04.781Z,4.00
2023-01-01T23:51:34.067Z,3.70
2023-01-01T23:54:02.415Z,5.30
2023-01-01T23:56:30.766Z,6.80
2023-01-01T23:58:58.921Z,6.50
